Airport View

Enter AWOS ICAO identifier for current METAR.

ex. KFNL

KCAD 261159Z AUTO 27004KT 10SM CLR 18/16 A2997 RMK AO2 T01800158

26 Jun 2019 12:20

Frequency: 128.325

Phone: 231-779-9536

Other Area AWOS: KTVC - KHTL - KRQB - KMBL

TAF KTVC 261120Z 2612/2712 24008KT P6SM FEW250 FM261700 26010G16KT P6SM FEW050 FM270100 23007KT P6SM SCT250 FM270700 VRB04KT P6SM FEW180